Warren, ID (83671)

8:41 AM PDT on July 28, 2016 (GMT -0700)
MesoWest | | Change Station

Elev 6520 ft 45.19 °N, 115.97 °W | Updated 1 hour ago

Clear
Clear
54.0 °F
Feels Like 54.0 °F
N
6.0
Wind Variable Wind from NNE
Gusts 9.0 mph

Today
High -- | Low -- °F
--% Chance of Precip.
Yesterday
High -- | Low -- °F
Precip. -- in
Pressure 30.07 in
Visibility 10.0 miles
Clouds Clear
Dew Point Not available.
Humidity Not available.
Rainfall in
Snow Depth Not available.
5:23 AM 8:14 PM
Waning Crescent, 31% visible
METAR KMYL 281451Z AUTO 17003KT 10SM CLR 18/10 A3023 RMK AO2 SLP182 T01780100 51006
Pressure 30.07 in
Visibility 10.0 miles
Clouds Clear
Dew Point Not available.
Humidity Not available.
Rainfall in
Snow Depth Not available.
5:23 AM 8:14 PM
Waning Crescent, 31% visible
METAR KMYL 281451Z AUTO 17003KT 10SM CLR 18/10 A3023 RMK AO2 SLP182 T01780100 51006

10-Day Weather Forecast

Almanac

Astronomy

Jul. 28, 2016 Rise Set
Actual Time
Civil Twilight
Nautical Twilight
Astronomical Twilight
Moon
Length of Visible Light
Length of Day
Tomorrow will be .
, % of the Moon is Illuminated

Today's Extremes

State Highs State Lows

Community

WunderPhotos

Upload Photos

1,928,140 photos uploaded!

WunderBlog® & News

Nearby

Air Quality

  Air Quality AQ Index Pollutant
Not available.

Snow Depth

Station Depth Elevation

Earthquake Activity

City Distance Mag. Time & Date
Minimum magnitude displayed is 2.5.

Coastal Water Temperatures

Place Temperature

Stations

Nearby Weather Stations

Station Location Temp. Windchill Dew Point Humidity Wind Precip. Elev Updated Type
                   

Watches & Warnings

There are currently no watches in effect.